KRF3H MMMX-MMUN
Flight info
| Callsign | KRF3H |
|---|---|
| Flight time | N/A |
| Altitude | 29000 |
| Route | NOXOS3A NOXOS UT155 AVALI UT61 VER UJ24 GOTAS UT65 PAULE PAULE3G |
| Aircraft | RJ70/M-SDFGIRWY/LB1 |
Departure
| Time | 2026-05-06 22:24 |
|---|---|
| Airport | Mexico City Benito Juárez International Airport (MMMX) |
Arrival
| Time | N/A |
|---|---|
| Airport | Cancún International Airport (MMUN) |
| Time | Latitude | Longitude | Altitude | Speed | Heading |
|---|---|---|---|---|---|
| 2026-05-06 21:53 | 19.42772 | -99.07767 | 7302 ft | 0 kts | 238° |
| 2026-05-06 22:07 | 19.42777 | -99.07758 | 7302 ft | 3 kts | 237° |
| 2026-05-06 22:07 | 19.42784 | -99.07745 | 7302 ft | 1 kts | 259° |
| 2026-05-06 22:08 | 19.42783 | -99.07737 | 7302 ft | 1 kts | 306° |
| 2026-05-06 22:08 | 19.42777 | -99.07731 | 7302 ft | 1 kts | 322° |
| 2026-05-06 22:08 | 19.42771 | -99.07726 | 7302 ft | 0 kts | 325° |
| 2026-05-06 22:14 | 19.42773 | -99.07727 | 7302 ft | 2 kts | 326° |
| 2026-05-06 22:14 | 19.42809 | -99.07750 | 7302 ft | 10 kts | 330° |
| 2026-05-06 22:14 | 19.42817 | -99.07807 | 7302 ft | 12 kts | 242° |
| 2026-05-06 22:15 | 19.42760 | -99.07909 | 7301 ft | 20 kts | 240° |
| 2026-05-06 22:15 | 19.42675 | -99.08065 | 7301 ft | 28 kts | 239° |
| 2026-05-06 22:15 | 19.42570 | -99.08262 | 7301 ft | 31 kts | 241° |
| 2026-05-06 22:15 | 19.42589 | -99.08406 | 7301 ft | 19 kts | 296° |
| 2026-05-06 22:16 | 19.42647 | -99.08517 | 7303 ft | 14 kts | 305° |
| 2026-05-06 22:16 | 19.42665 | -99.08543 | 7303 ft | 0 kts | 311° |
| 2026-05-06 22:21 | 19.42679 | -99.08559 | 7303 ft | 9 kts | 323° |
| 2026-05-06 22:21 | 19.42803 | -99.08637 | 7301 ft | 26 kts | 332° |
| 2026-05-06 22:22 | 19.42868 | -99.08673 | 7301 ft | 0 kts | 332° |
| 2026-05-06 22:23 | 19.42873 | -99.08676 | 7301 ft | 4 kts | 332° |
| 2026-05-06 22:23 | 19.42929 | -99.08710 | 7300 ft | 11 kts | 328° |
| 2026-05-06 22:23 | 19.42980 | -99.08652 | 7300 ft | 30 kts | 59° |
| 2026-05-06 22:24 | 19.43214 | -99.08235 | 7302 ft | 100 kts | 59° |
| 2026-05-06 22:24 | 19.43673 | -99.07419 | 7303 ft | 156 kts | 59° |
| 2026-05-06 22:24 | 19.44291 | -99.06362 | 7607 ft | 179 kts | 60° |
| 2026-05-06 22:24 | 19.44971 | -99.05286 | 8451 ft | 175 kts | 58° |
| 2026-05-06 22:25 | 19.45753 | -99.04110 | 8514 ft | 229 kts | 58° |
| 2026-05-06 22:25 | 19.46703 | -99.02602 | 9020 ft | 257 kts | 58° |
| 2026-05-06 22:25 | 19.47731 | -99.01038 | 10063 ft | 260 kts | 55° |
| 2026-05-06 22:25 | 19.48799 | -98.99455 | 10974 ft | 269 kts | 56° |
| 2026-05-06 22:26 | 19.49607 | -98.98218 | 11610 ft | 276 kts | 57° |
| 2026-05-06 22:26 | 19.50196 | -98.97255 | 12166 ft | 277 kts | 59° |
| 2026-05-06 22:26 | 19.51125 | -98.95457 | 13148 ft | 280 kts | 65° |
| 2026-05-06 22:27 | 19.51771 | -98.94036 | 13838 ft | 284 kts | 65° |
| 2026-05-06 22:27 | 19.52563 | -98.92262 | 14633 ft | 290 kts | 66° |
| 2026-05-06 22:27 | 19.53422 | -98.90318 | 15540 ft | 292 kts | 66° |
| 2026-05-06 22:28 | 19.54298 | -98.88374 | 16482 ft | 293 kts | 68° |
| 2026-05-06 22:28 | 19.55121 | -98.86414 | 17391 ft | 291 kts | 71° |
| 2026-05-06 22:28 | 19.55757 | -98.84349 | 17992 ft | 299 kts | 78° |
| 2026-05-06 22:28 | 19.56222 | -98.82191 | 18670 ft | 302 kts | 83° |
| 2026-05-06 22:29 | 19.56470 | -98.80050 | 19281 ft | 305 kts | 89° |
| 2026-05-06 22:31 | 19.56497 | -98.79028 | 19547 ft | 306 kts | 93° |
| 2026-05-06 22:31 | 19.56415 | -98.76770 | 20133 ft | 307 kts | 96° |
| 2026-05-06 22:31 | 19.56204 | -98.74535 | 20651 ft | 310 kts | 100° |
| 2026-05-06 22:31 | 19.55838 | -98.72263 | 21057 ft | 316 kts | 104° |
| 2026-05-06 22:32 | 19.55525 | -98.70755 | 21325 ft | 318 kts | 106° |
| 2026-05-06 22:33 | 19.55326 | -98.69902 | 21487 ft | 319 kts | 107° |
| 2026-05-06 22:34 | 19.54738 | -98.67666 | 21957 ft | 320 kts | 109° |
| 2026-05-06 22:34 | 19.54062 | -98.65417 | 22438 ft | 321 kts | 111° |
| 2026-05-06 22:34 | 19.53334 | -98.63169 | 22858 ft | 324 kts | 109° |
| 2026-05-06 22:34 | 19.52777 | -98.60835 | 23148 ft | 331 kts | 103° |
| 2026-05-06 22:35 | 19.52587 | -98.59632 | 23271 ft | 334 kts | 100° |
| 2026-05-06 22:36 | 19.52436 | -98.58453 | 23402 ft | 337 kts | 99° |
| 2026-05-06 22:36 | 19.52123 | -98.56020 | 23757 ft | 338 kts | 101° |
| 2026-05-06 22:36 | 19.51838 | -98.53551 | 24156 ft | 339 kts | 96° |
| 2026-05-06 22:36 | 19.51781 | -98.51045 | 24449 ft | 343 kts | 89° |
| 2026-05-06 22:37 | 19.52069 | -98.48506 | 24625 ft | 352 kts | 80° |
| 2026-05-06 22:37 | 19.52612 | -98.46278 | 24791 ft | 357 kts | 76° |
| 2026-05-06 22:40 | 19.53072 | -98.44572 | 24997 ft | 360 kts | 76° |
| 2026-05-06 22:40 | 19.53790 | -98.42016 | 25286 ft | 364 kts | 75° |
| 2026-05-06 22:40 | 19.54549 | -98.39448 | 25596 ft | 366 kts | 74° |
| 2026-05-06 22:41 | 19.55988 | -98.34333 | 26531 ft | 358 kts | 77° |
| 2026-05-06 22:41 | 19.56580 | -98.31802 | 27079 ft | 351 kts | 79° |
| 2026-05-06 22:41 | 19.57021 | -98.29262 | 26963 ft | 346 kts | 85° |
| 2026-05-06 22:42 | 19.57231 | -98.26713 | 26080 ft | 351 kts | 89° |
| 2026-05-06 22:42 | 19.57343 | -98.24073 | 24847 ft | 367 kts | 90° |
| 2026-05-06 22:42 | 19.57374 | -98.21326 | 23877 ft | 374 kts | 92° |
| 2026-05-06 22:42 | 19.57364 | -98.18620 | 23653 ft | 358 kts | 92° |
| 2026-05-06 22:43 | 19.57438 | -98.16084 | 23456 ft | 343 kts | 88° |
| 2026-05-06 22:43 | 19.57703 | -98.13608 | 22860 ft | 326 kts | 84° |
| 2026-05-06 22:43 | 19.58080 | -98.11342 | 22069 ft | 298 kts | 82° |
| 2026-05-06 22:43 | 19.58431 | -98.09240 | 20841 ft | 286 kts | 85° |
| 2026-05-06 22:44 | 19.58684 | -98.07181 | 20243 ft | 283 kts | 86° |
| 2026-05-06 22:44 | 19.58926 | -98.05021 | 19067 ft | 311 kts | 88° |
| 2026-05-06 22:44 | 19.59107 | -98.03208 | 19200 ft | 297 kts | 89° |
| 2026-05-06 22:45 | 19.59140 | -98.02854 | 19262 ft | 294 kts | 89° |
| 2026-05-06 22:45 | 19.59289 | -98.00885 | 20204 ft | 209 kts | 91° |
| 2026-05-06 22:45 | 19.59376 | -97.99927 | 22144 ft | 97 kts | 90° |
| 2026-05-06 22:45 | 19.59514 | -97.99126 | 18785 ft | 198 kts | 86° |
| 2026-05-06 22:46 | 19.59763 | -97.97074 | 16994 ft | 292 kts | 88° |
| 2026-05-06 22:46 | 19.59920 | -97.94976 | 16872 ft | 278 kts | 91° |
| 2026-05-06 22:46 | 19.59924 | -97.94883 | 16046 ft | 278 kts | 91° |